sensor_id;sensor_type;location;lat;lon;timestamp;pressure;altitude;pressure_sealevel;temperature;humidity
58686;BME280;44465;53.206;-6.106;2023-03-14T00:02:06;99194.22;;;20.08;48.94
58686;BME280;44465;53.206;-6.106;2023-03-14T00:04:32;99181.81;;;19.96;48.60
58686;BME280;44465;53.206;-6.106;2023-03-14T00:06:57;99251.66;;;20.38;48.62
58686;BME280;44465;53.206;-6.106;2023-03-14T00:09:23;99174.03;;;19.93;48.98
58686;BME280;44465;53.206;-6.106;2023-03-14T00:11:48;99172.66;;;19.87;48.46
58686;BME280;44465;53.206;-6.106;2023-03-14T00:14:14;99257.72;;;20.40;48.45
58686;BME280;44465;53.206;-6.106;2023-03-14T00:16:40;99223.16;;;20.14;48.60
58686;BME280;44465;53.206;-6.106;2023-03-14T00:19:07;99270.59;;;20.35;48.49
58686;BME280;44465;53.206;-6.106;2023-03-14T00:21:33;99257.31;;;20.22;48.58
58686;BME280;44465;53.206;-6.106;2023-03-14T00:23:59;99231.13;;;20.03;48.37
58686;BME280;44465;53.206;-6.106;2023-03-14T00:26:24;99247.31;;;20.13;48.44
58686;BME280;44465;53.206;-6.106;2023-03-14T00:28:54;99304.13;;;20.39;48.29
58686;BME280;44465;53.206;-6.106;2023-03-14T00:31:19;99286.81;;;20.21;48.45
58686;BME280;44465;53.206;-6.106;2023-03-14T00:33:45;99289.63;;;20.19;48.25
58686;BME280;44465;53.206;-6.106;2023-03-14T00:36:17;99328.19;;;20.39;48.27
58686;BME280;44465;53.206;-6.106;2023-03-14T00:38:45;99326.25;;;20.41;48.44
58686;BME280;44465;53.206;-6.106;2023-03-14T00:41:20;99323.94;;;20.37;48.28
58686;BME280;44465;53.206;-6.106;2023-03-14T00:43:47;99321.03;;;20.40;48.41
58686;BME280;44465;53.206;-6.106;2023-03-14T00:46:13;99336.97;;;20.41;48.56
58686;BME280;44465;53.206;-6.106;2023-03-14T00:48:39;99258.78;;;19.91;48.56
58686;BME280;44465;53.206;-6.106;2023-03-14T00:51:06;99327.44;;;20.26;48.65
58686;BME280;44465;53.206;-6.106;2023-03-14T00:53:36;99339.88;;;20.38;48.60
58686;BME280;44465;53.206;-6.106;2023-03-14T00:56:03;99349.59;;;20.39;48.63
58686;BME280;44465;53.206;-6.106;2023-03-14T00:58:29;99335.56;;;20.24;48.73
58686;BME280;44465;53.206;-6.106;2023-03-14T01:00:55;99305.94;;;20.03;48.49
58686;BME280;44465;53.206;-6.106;2023-03-14T01:03:21;99358.19;;;20.32;48.16
58686;BME280;44465;53.206;-6.106;2023-03-14T01:05:48;99375.94;;;20.33;48.75
58686;BME280;44465;53.206;-6.106;2023-03-14T01:08:14;99391.88;;;20.34;48.44
58686;BME280;44465;53.206;-6.106;2023-03-14T01:10:40;99328.41;;;20.01;48.51
58686;BME280;44465;53.206;-6.106;2023-03-14T01:13:07;99311.59;;;19.87;48.88
58686;BME280;44465;53.206;-6.106;2023-03-14T01:15:36;99396.25;;;20.35;48.42
58686;BME280;44465;53.206;-6.106;2023-03-14T01:18:02;99397.34;;;20.33;48.35
58686;BME280;44465;53.206;-6.106;2023-03-14T01:20:28;99382.47;;;20.28;48.59
58686;BME280;44465;53.206;-6.106;2023-03-14T01:22:54;99381.88;;;20.25;48.32
58686;BME280;44465;53.206;-6.106;2023-03-14T01:25:20;99367.63;;;20.24;48.43
58686;BME280;44465;53.206;-6.106;2023-03-14T01:27:46;99370.78;;;20.18;48.43
58686;BME280;44465;53.206;-6.106;2023-03-14T01:30:12;99405.00;;;20.37;48.28
58686;BME280;44465;53.206;-6.106;2023-03-14T01:32:39;99411.66;;;20.32;48.48
58686;BME280;44465;53.206;-6.106;2023-03-14T01:35:05;99414.84;;;20.37;48.48
58686;BME280;44465;53.206;-6.106;2023-03-14T01:37:31;99417.03;;;20.32;48.32
58686;BME280;44465;53.206;-6.106;2023-03-14T01:39:57;99398.06;;;20.10;48.46
58686;BME280;44465;53.206;-6.106;2023-03-14T01:42:22;99400.50;;;20.13;48.42
58686;BME280;44465;53.206;-6.106;2023-03-14T01:44:58;99398.53;;;20.04;48.60
58686;BME280;44465;53.206;-6.106;2023-03-14T01:47:25;99448.22;;;20.31;48.56
58686;BME280;44465;53.206;-6.106;2023-03-14T01:52:26;99447.19;;;20.21;48.36
58686;BME280;44465;53.206;-6.106;2023-03-14T01:54:55;99404.97;;;19.89;48.45
58686;BME280;44465;53.206;-6.106;2023-03-14T01:57:28;99449.78;;;20.09;48.40
58686;BME280;44465;53.206;-6.106;2023-03-14T01:59:59;99456.09;;;20.08;48.34
58686;BME280;44465;53.206;-6.106;2023-03-14T02:02:27;99491.25;;;20.28;48.32
58686;BME280;44465;53.206;-6.106;2023-03-14T02:04:54;99472.38;;;20.05;48.40
58686;BME280;44465;53.206;-6.106;2023-03-14T02:07:35;99452.84;;;19.92;48.69
58686;BME280;44465;53.206;-6.106;2023-03-14T02:10:12;99517.00;;;20.29;48.31
58686;BME280;44465;53.206;-6.106;2023-03-14T02:12:38;99521.63;;;20.27;48.39
58686;BME280;44465;53.206;-6.106;2023-03-14T02:15:12;99463.19;;;19.83;48.38
58686;BME280;44465;53.206;-6.106;2023-03-14T02:18:02;99552.63;;;20.29;48.40
58686;BME280;44465;53.206;-6.106;2023-03-14T02:21:37;99535.09;;;20.12;48.58
58686;BME280;44465;53.206;-6.106;2023-03-14T02:24:09;99571.44;;;20.28;48.50
58686;BME280;44465;53.206;-6.106;2023-03-14T02:27:12;99571.13;;;20.20;48.59
58686;BME280;44465;53.206;-6.106;2023-03-14T02:29:49;99586.63;;;20.27;48.24
58686;BME280;44465;53.206;-6.106;2023-03-14T02:32:18;99573.59;;;20.10;48.39
58686;BME280;44465;53.206;-6.106;2023-03-14T02:34:48;99584.72;;;20.17;48.34
58686;BME280;44465;53.206;-6.106;2023-03-14T02:37:16;99597.53;;;20.11;48.56
58686;BME280;44465;53.206;-6.106;2023-03-14T02:39:45;99631.75;;;20.32;48.42
58686;BME280;44465;53.206;-6.106;2023-03-14T02:42:13;99624.81;;;20.17;48.45
58686;BME280;44465;53.206;-6.106;2023-03-14T02:44:51;99620.84;;;20.09;48.23
58686;BME280;44465;53.206;-6.106;2023-03-14T02:47:21;99643.84;;;20.12;48.34
58686;BME280;44465;53.206;-6.106;2023-03-14T02:49:48;99645.84;;;20.08;48.51
58686;BME280;44465;53.206;-6.106;2023-03-14T02:52:13;99666.81;;;20.14;48.28
58686;BME280;44465;53.206;-6.106;2023-03-14T02:54:39;99627.66;;;19.88;48.53
58686;BME280;44465;53.206;-6.106;2023-03-14T02:57:04;99672.56;;;20.08;48.67
58686;BME280;44465;53.206;-6.106;2023-03-14T02:59:33;99695.91;;;20.19;48.32
58686;BME280;44465;53.206;-6.106;2023-03-14T03:02:06;99710.13;;;20.20;48.35
58686;BME280;44465;53.206;-6.106;2023-03-14T03:04:31;99719.84;;;20.21;48.60
58686;BME280;44465;53.206;-6.106;2023-03-14T03:06:57;99717.28;;;20.19;48.33
58686;BME280;44465;53.206;-6.106;2023-03-14T03:09:23;99710.66;;;20.12;48.74
58686;BME280;44465;53.206;-6.106;2023-03-14T03:11:50;99725.31;;;20.19;48.39
58686;BME280;44465;53.206;-6.106;2023-03-14T03:14:20;99661.69;;;19.86;48.60
58686;BME280;44465;53.206;-6.106;2023-03-14T03:16:45;99690.97;;;20.00;48.41
58686;BME280;44465;53.206;-6.106;2023-03-14T03:19:11;99739.88;;;20.28;48.55
58686;BME280;44465;53.206;-6.106;2023-03-14T03:21:39;99729.06;;;20.17;48.21
58686;BME280;44465;53.206;-6.106;2023-03-14T03:24:04;99733.53;;;20.29;48.46
58686;BME280;44465;53.206;-6.106;2023-03-14T03:26:34;99716.53;;;20.30;48.43
58686;BME280;44465;53.206;-6.106;2023-03-14T03:29:03;99721.56;;;20.22;48.69
58686;BME280;44465;53.206;-6.106;2023-03-14T03:31:30;99732.25;;;20.22;48.65
58686;BME280;44465;53.206;-6.106;2023-03-14T03:33:56;99724.13;;;20.10;48.57
58686;BME280;44465;53.206;-6.106;2023-03-14T03:36:25;99773.53;;;20.18;48.53
58686;BME280;44465;53.206;-6.106;2023-03-14T03:38:51;99792.66;;;20.24;48.49
58686;BME280;44465;53.206;-6.106;2023-03-14T03:41:17;99798.78;;;20.26;48.52
58686;BME280;44465;53.206;-6.106;2023-03-14T03:43:43;99774.56;;;20.02;48.35
58686;BME280;44465;53.206;-6.106;2023-03-14T03:46:11;99724.88;;;19.72;48.41
58686;BME280;44465;53.206;-6.106;2023-03-14T03:48:37;99762.59;;;19.95;48.30
58686;BME280;44465;53.206;-6.106;2023-03-14T03:51:04;99821.44;;;20.21;48.73
58686;BME280;44465;53.206;-6.106;2023-03-14T03:53:30;99743.56;;;19.72;48.68
58686;BME280;44465;53.206;-6.106;2023-03-14T03:55:56;99756.50;;;19.78;48.61
58686;BME280;44465;53.206;-6.106;2023-03-14T03:58:22;99787.91;;;19.89;48.68
58686;BME280;44465;53.206;-6.106;2023-03-14T04:00:47;99854.16;;;20.24;48.48
58686;BME280;44465;53.206;-6.106;2023-03-14T04:03:13;99817.50;;;19.99;48.77
58686;BME280;44465;53.206;-6.106;2023-03-14T04:05:38;99860.22;;;20.13;48.64
58686;BME280;44465;53.206;-6.106;2023-03-14T04:08:11;99844.69;;;20.06;48.55
58686;BME280;44465;53.206;-6.106;2023-03-14T04:10:37;99868.59;;;20.22;48.56
58686;BME280;44465;53.206;-6.106;2023-03-14T04:13:12;99857.06;;;20.21;48.59
58686;BME280;44465;53.206;-6.106;2023-03-14T04:15:39;99807.19;;;19.80;48.43
58686;BME280;44465;53.206;-6.106;2023-03-14T04:18:14;99896.72;;;20.27;48.45
58686;BME280;44465;53.206;-6.106;2023-03-14T04:20:41;99867.78;;;20.07;48.75
58686;BME280;44465;53.206;-6.106;2023-03-14T04:23:06;99916.41;;;20.26;48.63
58686;BME280;44465;53.206;-6.106;2023-03-14T04:25:32;99908.50;;;20.25;48.52
58686;BME280;44465;53.206;-6.106;2023-03-14T04:28:02;99902.69;;;20.18;48.75
58686;BME280;44465;53.206;-6.106;2023-03-14T04:30:31;99889.03;;;19.95;48.51
58686;BME280;44465;53.206;-6.106;2023-03-14T04:33:00;99922.66;;;20.12;48.75
58686;BME280;44465;53.206;-6.106;2023-03-14T04:35:32;99961.78;;;20.28;48.82
58686;BME280;44465;53.206;-6.106;2023-03-14T04:38:03;99945.88;;;20.12;48.57
58686;BME280;44465;53.206;-6.106;2023-03-14T04:40:30;99976.09;;;20.27;48.55
58686;BME280;44465;53.206;-6.106;2023-03-14T04:43:00;99982.41;;;20.26;48.52
58686;BME280;44465;53.206;-6.106;2023-03-14T04:45:26;99957.06;;;20.04;48.41
58686;BME280;44465;53.206;-6.106;2023-03-14T04:47:53;99976.47;;;20.21;48.49
58686;BME280;44465;53.206;-6.106;2023-03-14T04:50:19;99977.72;;;20.15;48.68
58686;BME280;44465;53.206;-6.106;2023-03-14T04:52:49;100008.38;;;20.24;48.30
58686;BME280;44465;53.206;-6.106;2023-03-14T04:55:14;100014.31;;;20.14;48.66
58686;BME280;44465;53.206;-6.106;2023-03-14T04:57:43;100028.16;;;20.21;48.66
58686;BME280;44465;53.206;-6.106;2023-03-14T05:00:09;100040.44;;;20.24;48.50
58686;BME280;44465;53.206;-6.106;2023-03-14T05:02:53;100057.44;;;20.23;48.35
58686;BME280;44465;53.206;-6.106;2023-03-14T05:05:25;100039.50;;;20.10;48.79
58686;BME280;44465;53.206;-6.106;2023-03-14T05:08:29;100045.06;;;20.07;48.40
58686;BME280;44465;53.206;-6.106;2023-03-14T05:11:13;100065.47;;;20.23;48.65
58686;BME280;44465;53.206;-6.106;2023-03-14T05:14:03;99999.06;;;19.73;48.56
58686;BME280;44465;53.206;-6.106;2023-03-14T05:16:42;100072.94;;;20.18;48.54
58686;BME280;44465;53.206;-6.106;2023-03-14T05:19:19;100083.72;;;20.16;48.63
58686;BME280;44465;53.206;-6.106;2023-03-14T05:22:04;100084.59;;;20.17;48.68
58686;BME280;44465;53.206;-6.106;2023-03-14T05:24:29;100082.56;;;20.06;48.59
58686;BME280;44465;53.206;-6.106;2023-03-14T05:27:06;100062.22;;;19.89;48.50
58686;BME280;44465;53.206;-6.106;2023-03-14T05:29:58;100088.88;;;20.05;48.64
58686;BME280;44465;53.206;-6.106;2023-03-14T05:32:40;100055.72;;;19.78;48.61
58686;BME280;44465;53.206;-6.106;2023-03-14T05:35:06;100090.09;;;19.99;48.46
58686;BME280;44465;53.206;-6.106;2023-03-14T05:37:55;100055.44;;;19.68;48.63
58686;BME280;44465;53.206;-6.106;2023-03-14T05:40:35;100140.50;;;20.20;48.74
58686;BME280;44465;53.206;-6.106;2023-03-14T05:43:09;100128.78;;;20.08;48.37
58686;BME280;44465;53.206;-6.106;2023-03-14T05:45:35;100111.31;;;20.02;48.61
58686;BME280;44465;53.206;-6.106;2023-03-14T05:48:19;100136.22;;;20.17;48.65
58686;BME280;44465;53.206;-6.106;2023-03-14T05:51:10;100113.41;;;19.97;48.34
58686;BME280;44465;53.206;-6.106;2023-03-14T05:53:56;100102.97;;;19.92;48.38
58686;BME280;44465;53.206;-6.106;2023-03-14T05:56:40;100147.38;;;20.09;48.21
58686;BME280;44465;53.206;-6.106;2023-03-14T05:59:24;100144.91;;;20.06;48.54
58686;BME280;44465;53.206;-6.106;2023-03-14T06:02:09;100142.59;;;20.00;48.45
58686;BME280;44465;53.206;-6.106;2023-03-14T06:04:45;100169.34;;;20.14;48.38
58686;BME280;44465;53.206;-6.106;2023-03-14T06:07:11;100141.28;;;19.93;48.38
58686;BME280;44465;53.206;-6.106;2023-03-14T06:09:37;100188.72;;;20.18;48.37
58686;BME280;44465;53.206;-6.106;2023-03-14T06:12:03;100158.06;;;19.95;48.42
58686;BME280;44465;53.206;-6.106;2023-03-14T06:14:34;100189.19;;;20.10;48.63
58686;BME280;44465;53.206;-6.106;2023-03-14T06:17:00;100185.19;;;20.03;48.60
58686;BME280;44465;53.206;-6.106;2023-03-14T06:19:28;100201.44;;;20.14;48.48
58686;BME280;44465;53.206;-6.106;2023-03-14T06:21:54;100157.06;;;19.81;48.34
58686;BME280;44465;53.206;-6.106;2023-03-14T06:24:21;100155.88;;;19.71;48.15
58686;BME280;44465;53.206;-6.106;2023-03-14T06:26:49;100212.84;;;20.02;48.51
58686;BME280;44465;53.206;-6.106;2023-03-14T06:29:15;100171.75;;;19.74;48.27
58686;BME280;44465;53.206;-6.106;2023-03-14T06:31:41;100161.69;;;19.63;48.47
58686;BME280;44465;53.206;-6.106;2023-03-14T06:34:07;100172.97;;;19.68;48.50
58686;BME280;44465;53.206;-6.106;2023-03-14T06:36:33;100155.25;;;19.51;48.20
58686;BME280;44465;53.206;-6.106;2023-03-14T06:38:59;100193.28;;;19.71;48.32
58686;BME280;44465;53.206;-6.106;2023-03-14T06:41:26;100270.16;;;20.12;48.16
58686;BME280;44465;53.206;-6.106;2023-03-14T06:43:52;100174.53;;;19.57;48.22
58686;BME280;44465;53.206;-6.106;2023-03-14T06:46:19;100224.63;;;19.83;48.31
58686;BME280;44465;53.206;-6.106;2023-03-14T06:48:44;100294.03;;;20.15;48.25
58686;BME280;44465;53.206;-6.106;2023-03-14T06:51:11;100196.09;;;19.53;48.43
58686;BME280;44465;53.206;-6.106;2023-03-14T06:53:40;100249.47;;;19.86;48.45
58686;BME280;44465;53.206;-6.106;2023-03-14T06:56:06;100247.91;;;19.81;48.33
58686;BME280;44465;53.206;-6.106;2023-03-14T06:58:33;100250.94;;;19.75;48.18
58686;BME280;44465;53.206;-6.106;2023-03-14T07:01:00;100268.31;;;19.82;48.26
58686;BME280;44465;53.206;-6.106;2023-03-14T07:03:31;100263.31;;;19.76;48.44
58686;BME280;44465;53.206;-6.106;2023-03-14T07:05:58;100251.72;;;19.61;48.38
58686;BME280;44465;53.206;-6.106;2023-03-14T07:08:24;100296.53;;;19.88;48.22
58686;BME280;44465;53.206;-6.106;2023-03-14T07:10:56;100272.59;;;19.71;48.32
58686;BME280;44465;53.206;-6.106;2023-03-14T07:13:21;100289.09;;;19.77;48.43
58686;BME280;44465;53.206;-6.106;2023-03-14T07:16:08;100292.91;;;19.73;48.26
58686;BME280;44465;53.206;-6.106;2023-03-14T07:18:35;100306.84;;;19.78;48.54
58686;BME280;44465;53.206;-6.106;2023-03-14T07:21:04;100322.53;;;19.84;48.38
58686;BME280;44465;53.206;-6.106;2023-03-14T07:23:30;100364.09;;;20.06;48.23
58686;BME280;44465;53.206;-6.106;2023-03-14T07:25:56;100337.66;;;19.86;48.20
58686;BME280;44465;53.206;-6.106;2023-03-14T07:28:24;100268.81;;;19.43;48.23
58686;BME280;44465;53.206;-6.106;2023-03-14T07:31:08;100356.38;;;19.86;48.21
58686;BME280;44465;53.206;-6.106;2023-03-14T07:33:34;100332.19;;;19.71;48.64
58686;BME280;44465;53.206;-6.106;2023-03-14T07:36:01;100338.66;;;19.67;48.21
58686;BME280;44465;53.206;-6.106;2023-03-14T07:38:27;100330.91;;;19.62;48.25
58686;BME280;44465;53.206;-6.106;2023-03-14T07:41:18;100314.13;;;19.44;48.18
58686;BME280;44465;53.206;-6.106;2023-03-14T07:44:16;100359.44;;;19.62;48.36
58686;BME280;44465;53.206;-6.106;2023-03-14T07:46:44;100371.66;;;19.66;48.42
58686;BME280;44465;53.206;-6.106;2023-03-14T07:49:10;100400.09;;;19.83;48.25
58686;BME280;44465;53.206;-6.106;2023-03-14T07:51:35;100418.56;;;19.88;48.29
58686;BME280;44465;53.206;-6.106;2023-03-14T07:54:01;100447.28;;;20.00;48.38
58686;BME280;44465;53.206;-6.106;2023-03-14T07:56:27;100404.44;;;19.69;48.44
58686;BME280;44465;53.206;-6.106;2023-03-14T07:58:53;100375.34;;;19.47;48.25
58686;BME280;44465;53.206;-6.106;2023-03-14T08:01:19;100368.50;;;19.43;48.00
58686;BME280;44465;53.206;-6.106;2023-03-14T08:03:55;100445.47;;;19.84;48.34
58686;BME280;44465;53.206;-6.106;2023-03-14T08:06:22;100375.56;;;19.44;48.38
58686;BME280;44465;53.206;-6.106;2023-03-14T08:08:48;100405.78;;;19.61;48.22
58686;BME280;44465;53.206;-6.106;2023-03-14T08:11:20;100383.38;;;19.47;48.34
58686;BME280;44465;53.206;-6.106;2023-03-14T08:13:45;100387.09;;;19.45;47.96
58686;BME280;44465;53.206;-6.106;2023-03-14T08:16:18;100391.56;;;19.44;48.19
58686;BME280;44465;53.206;-6.106;2023-03-14T08:18:47;100428.72;;;19.65;47.85
58686;BME280;44465;53.206;-6.106;2023-03-14T08:21:13;100399.59;;;19.44;48.01
58686;BME280;44465;53.206;-6.106;2023-03-14T08:23:40;100406.81;;;19.42;48.18
58686;BME280;44465;53.206;-6.106;2023-03-14T08:26:06;100436.81;;;19.63;47.92
58686;BME280;44465;53.206;-6.106;2023-03-14T08:28:32;100420.59;;;19.50;47.87
58686;BME280;44465;53.206;-6.106;2023-03-14T08:30:59;100412.16;;;19.42;47.97
58686;BME280;44465;53.206;-6.106;2023-03-14T08:33:26;100410.59;;;19.38;48.15
58686;BME280;44465;53.206;-6.106;2023-03-14T08:35:54;100427.81;;;19.48;47.96
58686;BME280;44465;53.206;-6.106;2023-03-14T08:38:20;100451.34;;;19.58;48.00
58686;BME280;44465;53.206;-6.106;2023-03-14T08:40:46;100462.66;;;19.63;48.21
58686;BME280;44465;53.206;-6.106;2023-03-14T08:43:12;100443.69;;;19.51;48.11
58686;BME280;44465;53.206;-6.106;2023-03-14T08:45:37;100462.81;;;19.60;47.98
58686;BME280;44465;53.206;-6.106;2023-03-14T08:48:03;100407.63;;;19.27;47.93
58686;BME280;44465;53.206;-6.106;2023-03-14T08:50:29;100455.41;;;19.49;47.95
58686;BME280;44465;53.206;-6.106;2023-03-14T08:52:55;100485.78;;;19.64;47.83
58686;BME280;44465;53.206;-6.106;2023-03-14T08:55:23;100531.34;;;19.94;47.99
58686;BME280;44465;53.206;-6.106;2023-03-14T08:57:49;100496.00;;;19.72;47.97
58686;BME280;44465;53.206;-6.106;2023-03-14T09:00:16;100501.78;;;19.64;48.03
58686;BME280;44465;53.206;-6.106;2023-03-14T09:02:42;100469.19;;;19.41;47.64
58686;BME280;44465;53.206;-6.106;2023-03-14T09:05:08;100453.41;;;19.36;47.93
58686;BME280;44465;53.206;-6.106;2023-03-14T09:07:39;100441.25;;;19.31;48.17
58686;BME280;44465;53.206;-6.106;2023-03-14T09:10:07;100548.25;;;19.95;48.11
58686;BME280;44465;53.206;-6.106;2023-03-14T09:12:33;100515.91;;;19.66;47.84
58686;BME280;44465;53.206;-6.106;2023-03-14T09:14:59;100514.22;;;19.65;48.11
58686;BME280;44465;53.206;-6.106;2023-03-14T09:17:25;100549.97;;;19.78;47.80
58686;BME280;44465;53.206;-6.106;2023-03-14T09:19:51;100496.56;;;19.45;47.82
58686;BME280;44465;53.206;-6.106;2023-03-14T09:22:27;100487.06;;;19.39;48.01
58686;BME280;44465;53.206;-6.106;2023-03-14T09:24:55;100557.84;;;19.81;47.98
58686;BME280;44465;53.206;-6.106;2023-03-14T09:27:21;100519.72;;;19.62;48.00
58686;BME280;44465;53.206;-6.106;2023-03-14T09:29:50;100485.78;;;19.46;48.00
58686;BME280;44465;53.206;-6.106;2023-03-14T09:32:22;100488.22;;;19.51;47.78
58686;BME280;44465;53.206;-6.106;2023-03-14T09:34:47;100545.16;;;19.87;47.83
58686;BME280;44465;53.206;-6.106;2023-03-14T09:37:14;100535.00;;;19.76;48.24
58686;BME280;44465;53.206;-6.106;2023-03-14T09:39:41;100496.16;;;19.52;48.34
58686;BME280;44465;53.206;-6.106;2023-03-14T09:42:15;100480.69;;;19.42;48.24
58686;BME280;44465;53.206;-6.106;2023-03-14T09:45:05;100530.06;;;19.68;48.15
58686;BME280;44465;53.206;-6.106;2023-03-14T09:47:46;100488.16;;;19.52;47.97
58686;BME280;44465;53.206;-6.106;2023-03-14T09:50:14;100499.16;;;19.46;48.31
58686;BME280;44465;53.206;-6.106;2023-03-14T09:52:43;100561.19;;;19.87;48.08
58686;BME280;44465;53.206;-6.106;2023-03-14T09:55:15;100531.72;;;19.71;48.17
58686;BME280;44465;53.206;-6.106;2023-03-14T09:57:43;100550.94;;;19.77;48.00
58686;BME280;44465;53.206;-6.106;2023-03-14T10:00:19;100471.56;;;19.30;48.18
58686;BME280;44465;53.206;-6.106;2023-03-14T10:02:57;100526.44;;;19.69;47.88
58686;BME280;44465;53.206;-6.106;2023-03-14T10:05:26;100605.63;;;20.05;48.34
58686;BME280;44465;53.206;-6.106;2023-03-14T10:08:01;100527.81;;;19.60;48.09
58686;BME280;44465;53.206;-6.106;2023-03-14T10:10:27;100504.50;;;19.46;48.55
58686;BME280;44465;53.206;-6.106;2023-03-14T10:13:05;100503.97;;;19.40;48.11
58686;BME280;44465;53.206;-6.106;2023-03-14T10:15:41;100496.03;;;19.38;48.25
58686;BME280;44465;53.206;-6.106;2023-03-14T10:18:13;100534.75;;;19.47;48.00
58686;BME280;44465;53.206;-6.106;2023-03-14T10:23:36;100532.09;;;19.29;48.17
58686;BME280;44465;53.206;-6.106;2023-03-14T10:26:27;100510.09;;;19.24;48.17
58686;BME280;44465;53.206;-6.106;2023-03-14T10:29:14;100510.81;;;19.28;48.11
58686;BME280;44465;53.206;-6.106;2023-03-14T10:32:06;100530.28;;;19.30;47.69
58686;BME280;44465;53.206;-6.106;2023-03-14T10:34:45;100533.66;;;19.33;47.96
58686;BME280;44465;53.206;-6.106;2023-03-14T10:49:04;100551.66;;;19.30;47.87
58686;BME280;44465;53.206;-6.106;2023-03-14T10:55:41;100571.81;;;19.35;48.09
58686;BME280;44465;53.206;-6.106;2023-03-14T10:58:25;100573.56;;;19.36;48.14
58686;BME280;44465;53.206;-6.106;2023-03-14T11:38:59;100676.84;;;19.89;48.18
58686;BME280;44465;53.206;-6.106;2023-03-14T12:51:04;100792.19;;;19.98;47.57
58686;BME280;44465;53.206;-6.106;2023-03-14T12:54:02;100700.84;;;19.36;47.53
58686;BME280;44465;53.206;-6.106;2023-03-14T13:00:00;100748.81;;;19.74;47.57
58686;BME280;44465;53.206;-6.106;2023-03-14T13:02:37;100723.91;;;19.56;47.47
58686;BME280;44465;53.206;-6.106;2023-03-14T13:10:23;100716.41;;;19.45;47.36
58686;BME280;44465;53.206;-6.106;2023-03-14T13:13:17;100807.28;;;19.99;47.43
58686;BME280;44465;53.206;-6.106;2023-03-14T13:15:46;100695.59;;;19.34;47.75
58686;BME280;44465;53.206;-6.106;2023-03-14T13:18:15;100714.84;;;19.59;47.58
58686;BME280;44465;53.206;-6.106;2023-03-14T13:20:46;100710.53;;;19.56;47.61
58686;BME280;44465;53.206;-6.106;2023-03-14T13:23:35;100691.75;;;19.40;47.53
58686;BME280;44465;53.206;-6.106;2023-03-14T13:26:02;100682.94;;;19.38;47.59
58686;BME280;44465;53.206;-6.106;2023-03-14T13:28:30;100774.25;;;20.01;47.74
58686;BME280;44465;53.206;-6.106;2023-03-14T13:31:03;100665.84;;;19.42;47.77
58686;BME280;44465;53.206;-6.106;2023-03-14T13:33:30;100677.31;;;19.44;47.73
58686;BME280;44465;53.206;-6.106;2023-03-14T13:36:04;100653.81;;;19.33;47.53
58686;BME280;44465;53.206;-6.106;2023-03-14T13:38:35;100647.63;;;19.33;47.71
58686;BME280;44465;53.206;-6.106;2023-03-14T13:41:06;100666.94;;;19.38;47.43
58686;BME280;44465;53.206;-6.106;2023-03-14T13:43:43;100658.91;;;19.38;47.82
58686;BME280;44465;53.206;-6.106;2023-03-14T13:46:20;100651.13;;;19.33;47.57
58686;BME280;44465;53.206;-6.106;2023-03-14T13:49:09;100656.56;;;19.32;47.61
58686;BME280;44465;53.206;-6.106;2023-03-14T13:51:40;100662.47;;;19.38;47.52
58686;BME280;44465;53.206;-6.106;2023-03-14T13:54:18;100728.41;;;19.73;47.33
58686;BME280;44465;53.206;-6.106;2023-03-14T13:56:45;100652.78;;;19.36;47.08
58686;BME280;44465;53.206;-6.106;2023-03-14T13:59:24;100771.00;;;20.11;47.26
58686;BME280;44465;53.206;-6.106;2023-03-14T14:01:54;100668.19;;;19.48;47.16
58686;BME280;44465;53.206;-6.106;2023-03-14T14:04:37;100659.25;;;19.49;47.33
58686;BME280;44465;53.206;-6.106;2023-03-14T14:10:53;100665.28;;;19.53;47.64
58686;BME280;44465;53.206;-6.106;2023-03-14T14:13:23;100649.97;;;19.57;46.80
58686;BME280;44465;53.206;-6.106;2023-03-14T14:18:44;100684.22;;;19.66;47.33
58686;BME280;44465;53.206;-6.106;2023-03-14T14:21:11;100649.09;;;19.56;47.19
58686;BME280;44465;53.206;-6.106;2023-03-14T14:31:32;100684.06;;;19.69;46.91
58686;BME280;44465;53.206;-6.106;2023-03-14T14:34:02;100703.16;;;19.79;47.08
58686;BME280;44465;53.206;-6.106;2023-03-14T14:39:39;100685.56;;;19.75;46.95
58686;BME280;44465;53.206;-6.106;2023-03-14T14:42:20;100727.94;;;20.00;46.73
58686;BME280;44465;53.206;-6.106;2023-03-14T23:40:57;101273.69;;;19.46;46.09
58686;BME280;44465;53.206;-6.106;2023-03-14T23:43:35;101211.75;;;19.16;45.94
58686;BME280;44465;53.206;-6.106;2023-03-14T23:46:06;101207.50;;;19.10;45.91
58686;BME280;44465;53.206;-6.106;2023-03-14T23:48:31;101242.72;;;19.42;45.66
58686;BME280;44465;53.206;-6.106;2023-03-14T23:51:00;101228.00;;;19.32;45.82
58686;BME280;44465;53.206;-6.106;2023-03-14T23:53:27;101223.69;;;19.28;45.94
58686;BME280;44465;53.206;-6.106;2023-03-14T23:55:54;101202.91;;;19.14;46.25
58686;BME280;44465;53.206;-6.106;2023-03-14T23:58:21;101188.13;;;19.05;45.97
